createdAt,value
2022-08-05T00:01:29.278Z,99585.08
2022-08-05T00:04:02.293Z,99576.27
2022-08-05T00:06:35.908Z,99587.08
2022-08-05T00:09:13.030Z,99574.81
2022-08-05T00:11:49.514Z,99573.99
2022-08-05T00:14:19.814Z,99577.59
2022-08-05T00:16:54.067Z,99573.32
2022-08-05T00:19:32.780Z,99571.58
2022-08-05T00:22:02.346Z,99573.61
2022-08-05T00:24:35.715Z,99574.64
2022-08-05T00:27:16.549Z,99572.97
2022-08-05T00:29:45.729Z,99570.27
2022-08-05T00:32:19.105Z,99572.25
2022-08-05T00:35:05.729Z,99574.35
2022-08-05T00:37:27.530Z,99571.89
2022-08-05T00:40:02.194Z,99572.89
2022-08-05T00:42:38.949Z,99567.66
2022-08-05T00:45:13.664Z,99573.10
2022-08-05T00:47:56.640Z,99564.28
2022-08-05T00:50:25.403Z,99574.02
2022-08-05T00:52:59.042Z,99570.68
2022-08-05T00:55:33.965Z,99570.92
2022-08-05T00:58:07.220Z,99570.88
2022-08-05T01:00:42.714Z,99574.27
2022-08-05T01:03:22.665Z,99575.26
2022-08-05T01:05:51.285Z,99570.00
2022-08-05T01:08:42.276Z,99555.23
2022-08-05T01:11:03.116Z,99565.34
2022-08-05T01:13:58.539Z,99569.34
2022-08-05T01:16:21.656Z,99569.16
2022-08-05T01:18:59.287Z,99561.84
2022-08-05T01:21:38.854Z,99565.04
2022-08-05T01:24:17.754Z,99565.72
2022-08-05T01:27:00.881Z,99569.27
2022-08-05T01:29:38.479Z,99571.86
2022-08-05T01:32:18.661Z,99566.64
2022-08-05T01:34:50.718Z,99574.78
2022-08-05T01:37:27.726Z,99569.63
2022-08-05T01:40:00.102Z,99570.52
2022-08-05T01:42:36.334Z,99570.30
2022-08-05T01:45:12.568Z,99575.45
2022-08-05T01:47:49.806Z,99575.20
2022-08-05T01:50:29.664Z,99576.73
2022-08-05T01:53:05.859Z,99578.66
2022-08-05T01:55:43.589Z,99576.59
2022-08-05T01:58:18.448Z,99571.14
2022-08-05T02:00:55.209Z,99574.47
2022-08-05T02:03:34.132Z,99581.17
2022-08-05T02:06:24.107Z,99577.20
2022-08-05T02:08:58.281Z,99584.66
2022-08-05T02:11:23.921Z,99581.54
2022-08-05T02:13:59.718Z,99577.55
2022-08-05T02:16:36.591Z,99581.33
2022-08-05T02:19:14.063Z,99578.00
2022-08-05T02:21:51.986Z,99571.38
2022-08-05T02:24:28.147Z,99583.83
2022-08-05T02:27:10.311Z,99584.88
2022-08-05T02:29:59.782Z,99577.23
2022-08-05T02:32:29.454Z,99593.20
2022-08-05T02:35:13.433Z,99592.48
2022-08-05T02:37:47.917Z,99597.97
2022-08-05T02:40:22.808Z,99598.09
2022-08-05T02:43:01.816Z,99599.15
2022-08-05T02:45:52.519Z,99601.93
2022-08-05T02:48:18.449Z,99606.33
2022-08-05T02:50:55.767Z,99603.73
2022-08-05T02:53:39.056Z,99601.98
2022-08-05T02:56:15.674Z,99600.13
2022-08-05T02:58:51.388Z,99609.84
2022-08-05T03:01:30.075Z,99603.67
2022-08-05T03:04:12.108Z,99607.13
2022-08-05T03:09:37.580Z,99615.77
2022-08-05T03:12:09.191Z,99602.73
2022-08-05T03:14:48.101Z,99613.11
2022-08-05T03:17:23.560Z,99617.30
2022-08-05T03:19:58.599Z,99609.00
2022-08-05T03:22:32.780Z,99615.88
2022-08-05T03:25:31.630Z,99606.69
2022-08-05T03:27:59.897Z,99614.20
2022-08-05T03:30:19.715Z,99609.50
2022-08-05T03:32:54.699Z,99618.94
2022-08-05T03:35:28.221Z,99622.42
2022-08-05T03:38:02.669Z,99623.91
2022-08-05T03:40:35.947Z,99619.20
2022-08-05T03:43:58.566Z,99628.77
2022-08-05T03:45:57.150Z,99625.87
2022-08-05T03:48:21.995Z,99625.05
2022-08-05T03:51:33.460Z,99625.91
2022-08-05T03:56:01.099Z,99632.67
2022-08-05T03:56:17.931Z,99635.00
2022-08-05T03:58:52.676Z,99639.41
2022-08-05T04:01:27.928Z,99641.02
2022-08-05T04:04:10.118Z,99641.45
2022-08-05T04:06:47.539Z,99641.82
2022-08-05T04:09:20.214Z,99643.49
2022-08-05T04:11:52.835Z,99642.43
2022-08-05T04:14:29.572Z,99642.97
2022-08-05T04:17:03.536Z,99642.86
2022-08-05T04:19:44.354Z,99645.88
2022-08-05T04:22:20.429Z,99649.84
2022-08-05T04:24:53.212Z,99656.64
2022-08-05T04:27:41.882Z,99656.64
2022-08-05T04:30:03.857Z,99661.12
2022-08-05T04:35:19.796Z,99654.52
2022-08-05T04:38:02.214Z,99663.46
2022-08-05T04:40:28.528Z,99657.97
2022-08-05T04:43:02.734Z,99664.98
2022-08-05T04:45:49.109Z,99665.53
2022-08-05T04:48:18.676Z,99662.86
2022-08-05T04:51:02.773Z,99657.15
2022-08-05T04:53:26.214Z,99659.93
2022-08-05T04:56:33.123Z,99660.27
2022-08-05T04:58:34.804Z,99663.46
2022-08-05T05:01:10.188Z,99657.86
2022-08-05T05:03:45.191Z,99656.56
2022-08-05T05:06:40.163Z,99662.53
2022-08-05T05:08:55.266Z,99659.29
2022-08-05T05:14:15.238Z,99655.09
2022-08-05T05:16:45.650Z,99658.94
2022-08-05T05:19:23.576Z,99660.02
2022-08-05T05:21:58.483Z,99658.08
2022-08-05T05:24:57.955Z,99659.29
2022-08-05T05:27:11.280Z,99659.94
2022-08-05T05:30:04.908Z,99653.50
2022-08-05T05:32:21.357Z,99654.55
2022-08-05T05:34:56.045Z,99656.50
2022-08-05T05:37:37.460Z,99661.17
2022-08-05T05:40:05.260Z,99661.84
2022-08-05T05:42:41.566Z,99665.78
2022-08-05T05:45:16.560Z,99665.59
2022-08-05T05:48:06.795Z,99668.59
2022-08-05T05:50:25.878Z,99664.88
2022-08-05T05:52:59.247Z,99664.25
2022-08-05T05:55:51.873Z,99669.61
2022-08-05T05:58:07.470Z,99673.06
2022-08-05T06:00:45.884Z,99665.50
2022-08-05T06:03:40.210Z,99671.76
2022-08-05T06:05:54.190Z,99660.39
2022-08-05T06:08:31.575Z,99664.22
2022-08-05T06:11:06.354Z,99667.04
2022-08-05T06:13:53.673Z,99661.50
2022-08-05T06:16:29.830Z,99663.30
2022-08-05T06:18:54.064Z,99666.59
2022-08-05T06:21:37.106Z,99670.89
2022-08-05T06:24:04.396Z,99668.80
2022-08-05T06:26:37.901Z,99665.58
2022-08-05T06:29:42.948Z,99672.69
2022-08-05T06:31:46.439Z,99669.29
2022-08-05T06:34:21.244Z,99670.66
2022-08-05T06:36:57.985Z,99673.48
2022-08-05T06:39:30.464Z,99676.28
2022-08-05T06:42:05.624Z,99676.28
2022-08-05T06:44:39.285Z,99678.74
2022-08-05T06:47:30.051Z,99677.67
2022-08-05T06:50:01.880Z,99679.03
2022-08-05T06:52:36.389Z,99685.38
2022-08-05T06:55:00.445Z,99680.20
2022-08-05T06:58:02.724Z,99683.41
2022-08-05T07:00:14.858Z,99687.39
2022-08-05T07:02:53.973Z,99686.67
2022-08-05T07:05:31.840Z,99688.28
2022-08-05T07:08:01.122Z,99681.64
2022-08-05T07:10:36.277Z,99690.52
2022-08-05T07:13:46.382Z,99686.11
2022-08-05T07:17:55.893Z,99680.73
2022-08-05T07:18:55.713Z,99689.56
2022-08-05T07:21:29.263Z,99678.45
2022-08-05T07:24:04.917Z,99688.61
2022-08-05T07:26:40.262Z,99688.45
2022-08-05T07:29:13.780Z,99685.88
2022-08-05T07:31:55.036Z,99691.16
2022-08-05T07:34:26.217Z,99696.06
2022-08-05T07:36:57.899Z,99696.35
2022-08-05T07:40:25.974Z,99688.76
2022-08-05T07:42:15.114Z,99686.52
2022-08-05T07:44:42.942Z,99694.55
2022-08-05T07:47:18.169Z,99688.39
2022-08-05T07:49:54.247Z,99683.73
2022-08-05T07:52:26.890Z,99682.52
2022-08-05T07:55:00.068Z,99682.61
2022-08-05T07:57:51.334Z,99678.25
2022-08-05T08:00:16.424Z,99681.97
2022-08-05T08:03:14.821Z,99673.32
2022-08-05T08:05:26.729Z,99675.01
2022-08-05T08:08:00.798Z,99674.03
2022-08-05T08:10:34.283Z,99670.92
2022-08-05T08:13:09.638Z,99677.06
2022-08-05T08:16:34.808Z,99683.23
2022-08-05T08:18:20.987Z,99678.10
2022-08-05T08:21:02.449Z,99670.58
2022-08-05T08:24:02.599Z,99678.81
2022-08-05T08:26:05.650Z,99676.58
2022-08-05T08:28:55.224Z,99674.11
2022-08-05T08:33:57.907Z,99668.64
2022-08-05T08:36:49.140Z,99658.76
2022-08-05T08:39:15.074Z,99670.11
2022-08-05T08:41:50.774Z,99674.68
2022-08-05T08:45:16.775Z,99666.47
2022-08-05T08:47:01.596Z,99673.98
2022-08-05T08:50:22.880Z,99678.50
2022-08-05T08:52:17.763Z,99666.94
2022-08-05T08:54:53.666Z,99676.02
2022-08-05T08:57:41.987Z,99680.55
2022-08-05T09:00:04.300Z,99676.89
2022-08-05T09:02:37.552Z,99671.79
2022-08-05T09:05:17.420Z,99671.88
2022-08-05T09:07:56.978Z,99671.09
2022-08-05T09:10:27.014Z,99672.87
2022-08-05T09:13:05.260Z,99680.31
2022-08-05T09:15:37.197Z,99673.23
2022-08-05T09:18:13.484Z,99672.75
2022-08-05T09:20:47.413Z,99667.23
2022-08-05T09:23:22.161Z,99657.26
2022-08-05T09:26:09.251Z,99659.39
2022-08-05T09:28:41.775Z,99653.19
2022-08-05T09:31:22.481Z,99657.25
2022-08-05T09:33:53.773Z,99650.20
2022-08-05T09:36:33.472Z,99659.27
2022-08-05T09:39:16.571Z,99664.06
2022-08-05T09:41:59.538Z,99657.34
2022-08-05T09:44:41.790Z,99650.78
2022-08-05T09:47:17.685Z,99651.70
2022-08-05T09:49:54.905Z,99663.91
2022-08-05T09:52:30.642Z,99655.19
2022-08-05T09:55:06.242Z,99655.84
2022-08-05T09:57:45.359Z,99645.25
2022-08-05T10:00:24.748Z,99649.45
2022-08-05T10:02:59.183Z,99643.57
2022-08-05T10:05:33.513Z,99638.05
2022-08-05T10:08:35.777Z,99639.78
2022-08-05T10:10:43.525Z,99642.57
2022-08-05T10:13:31.720Z,99637.91
2022-08-05T10:16:05.201Z,99638.25
2022-08-05T10:18:39.042Z,99640.73
2022-08-05T10:21:16.442Z,99647.80
2022-08-05T10:23:59.362Z,99640.10
2022-08-05T10:26:32.386Z,99645.11
2022-08-05T10:29:02.695Z,99643.54
2022-08-05T10:32:54.723Z,99640.33
2022-08-05T10:34:14.548Z,99642.47
2022-08-05T10:36:50.917Z,99644.12
2022-08-05T10:40:03.116Z,99637.25
2022-08-05T10:42:05.498Z,99629.83
2022-08-05T10:44:40.565Z,99626.18
2022-08-05T10:47:26.073Z,99632.22
2022-08-05T10:50:20.678Z,99636.10
2022-08-05T10:52:46.928Z,99637.75
2022-08-05T10:55:20.031Z,99628.83
2022-08-05T10:58:11.386Z,99637.65
2022-08-05T11:00:54.941Z,99627.13
2022-08-05T11:03:27.086Z,99626.45
2022-08-05T11:06:15.429Z,99627.02
2022-08-05T11:09:05.289Z,99622.66
2022-08-05T11:11:52.083Z,99620.42
2022-08-05T11:14:49.404Z,99620.09
2022-08-05T11:17:57.837Z,99621.24
2022-08-05T11:20:11.150Z,99619.03
2022-08-05T11:22:49.673Z,99618.42
2022-08-05T11:26:05.273Z,99619.64
2022-08-05T11:28:40.526Z,99614.61
2022-08-05T11:31:58.023Z,99610.75
2022-08-05T11:34:14.703Z,99613.75
2022-08-05T11:36:52.998Z,99602.42
2022-08-05T11:40:00.520Z,99600.55
2022-08-05T11:42:27.906Z,99606.42
2022-08-05T11:45:14.538Z,99602.98
2022-08-05T11:47:48.263Z,99592.87
2022-08-05T11:50:17.486Z,99586.08
2022-08-05T11:52:57.544Z,99591.99
2022-08-05T11:55:32.116Z,99597.00
2022-08-05T11:58:10.567Z,99590.52
2022-08-05T12:00:39.146Z,99595.01
2022-08-05T12:03:29.284Z,99595.25
2022-08-05T12:05:58.592Z,99597.63
2022-08-05T12:08:33.029Z,99601.66
2022-08-05T12:11:09.011Z,99597.61
2022-08-05T12:13:48.422Z,99593.33
2022-08-05T12:16:25.485Z,99598.41
2022-08-05T12:21:45.480Z,99589.75
2022-08-05T12:24:21.281Z,99591.63
2022-08-05T12:26:57.131Z,99594.47
2022-08-05T12:29:38.805Z,99591.70
2022-08-05T12:32:07.590Z,99588.86
2022-08-05T12:34:40.643Z,99592.20
2022-08-05T12:37:29.741Z,99582.44
2022-08-05T12:39:51.374Z,99583.50
2022-08-05T12:42:25.249Z,99583.88
2022-08-05T12:45:09.537Z,99579.44
2022-08-05T12:48:01.735Z,99580.40
2022-08-05T12:50:21.089Z,99580.78
2022-08-05T12:53:00.645Z,99580.87
2022-08-05T12:55:35.371Z,99566.27
2022-08-05T12:58:49.608Z,99570.81
2022-08-05T13:02:02.596Z,99576.23
2022-08-05T13:03:24.884Z,99573.66
2022-08-05T13:05:59.982Z,99576.77
2022-08-05T13:08:34.480Z,99564.80
2022-08-05T13:11:08.009Z,99552.70
2022-08-05T13:14:06.301Z,99557.75
2022-08-05T13:16:19.574Z,99560.64
2022-08-05T13:18:58.955Z,99552.91
2022-08-05T13:21:37.728Z,99549.54
2022-08-05T13:24:09.061Z,99550.87
2022-08-05T13:26:42.517Z,99560.63
2022-08-05T13:29:19.235Z,99559.45
2022-08-05T13:32:04.047Z,99561.45
2022-08-05T13:34:27.721Z,99557.77
2022-08-05T13:37:01.014Z,99557.81
2022-08-05T13:40:14.514Z,99555.65
2022-08-05T13:42:14.607Z,99552.23
2022-08-05T13:44:48.052Z,99544.20
2022-08-05T13:47:36.113Z,99552.59
2022-08-05T13:49:56.787Z,99544.34
2022-08-05T13:52:30.576Z,99537.41
2022-08-05T13:55:07.755Z,99536.91
2022-08-05T13:57:50.899Z,99533.55
2022-08-05T14:00:17.977Z,99539.88
2022-08-05T14:02:51.296Z,99532.67
2022-08-05T14:05:48.262Z,99535.04
2022-08-05T14:08:05.726Z,99533.59
2022-08-05T14:10:35.579Z,99532.03
2022-08-05T14:13:10.662Z,99531.41
2022-08-05T14:16:08.684Z,99529.08
2022-08-05T14:18:23.236Z,99530.41
2022-08-05T14:20:55.603Z,99529.68
2022-08-05T14:23:36.318Z,99523.31
2022-08-05T14:26:04.965Z,99518.80
2022-08-05T14:28:52.279Z,99518.17
2022-08-05T14:31:17.574Z,99519.02
2022-08-05T14:33:59.095Z,99519.27
2022-08-05T14:36:25.112Z,99518.30
2022-08-05T14:39:02.762Z,99516.37
2022-08-05T14:41:36.356Z,99514.20
2022-08-05T14:44:20.680Z,99513.54
2022-08-05T14:46:45.198Z,99513.14
2022-08-05T14:49:19.300Z,99510.31
2022-08-05T14:51:52.956Z,99513.27
2022-08-05T14:54:30.294Z,99506.06
2022-08-05T14:57:05.156Z,99499.52
2022-08-05T14:59:37.296Z,99503.52
2022-08-05T15:02:14.838Z,99503.02
2022-08-05T15:04:47.853Z,99505.27
2022-08-05T15:08:06.114Z,99501.36
2022-08-05T15:09:57.624Z,99496.95
2022-08-05T15:12:57.665Z,99474.64
2022-08-05T15:15:13.626Z,99488.02
2022-08-05T15:17:51.257Z,99496.02
2022-08-05T15:20:25.053Z,99494.98
2022-08-05T15:23:00.249Z,99493.32
2022-08-05T15:25:51.570Z,99497.25
2022-08-05T15:28:14.332Z,99495.18
2022-08-05T15:34:18.579Z,99495.19
2022-08-05T15:36:04.627Z,99494.52
2022-08-05T15:38:41.299Z,99497.04
2022-08-05T15:41:22.446Z,99497.37
2022-08-05T15:43:48.828Z,99498.20
2022-08-05T15:46:24.457Z,99502.52
2022-08-05T15:49:10.451Z,99498.16
2022-08-05T15:52:04.136Z,99495.75
2022-08-05T15:54:15.136Z,99499.59
2022-08-05T15:56:49.175Z,99491.52
2022-08-05T15:59:22.673Z,99494.83
2022-08-05T16:01:56.737Z,99494.66
2022-08-05T16:04:31.712Z,99496.17
2022-08-05T16:07:06.058Z,99500.31
2022-08-05T16:09:42.053Z,99502.33
2022-08-05T16:12:17.435Z,99505.61
2022-08-05T16:14:53.219Z,99504.33
2022-08-05T16:17:26.416Z,99511.33
2022-08-05T16:20:11.192Z,99502.41
2022-08-05T16:22:39.194Z,99498.08
2022-08-05T16:25:13.511Z,99511.30
2022-08-05T16:28:02.231Z,99509.67
2022-08-05T16:30:25.583Z,99508.61
2022-08-05T16:32:58.163Z,99513.80
2022-08-05T16:35:33.676Z,99510.66
2022-08-05T16:38:24.167Z,99512.13
2022-08-05T16:40:42.332Z,99522.31
2022-08-05T16:43:17.534Z,99513.22
2022-08-05T16:46:06.200Z,99511.81
2022-08-05T16:48:33.813Z,99520.73
2022-08-05T16:51:08.977Z,99519.67
2022-08-05T16:54:05.090Z,99524.98
2022-08-05T16:56:17.597Z,99525.77
2022-08-05T16:58:51.684Z,99523.77
2022-08-05T17:01:26.032Z,99527.81
2022-08-05T17:03:59.796Z,99531.94
2022-08-05T17:06:33.878Z,99511.11
2022-08-05T17:09:08.744Z,99533.18
2022-08-05T17:11:49.025Z,99539.54
2022-08-05T17:14:34.183Z,99536.06
2022-08-05T17:16:53.290Z,99543.67
2022-08-05T17:19:27.607Z,99541.23
2022-08-05T17:22:01.280Z,99533.42
2022-08-05T17:24:42.346Z,99541.55
2022-08-05T17:27:16.158Z,99547.05
2022-08-05T17:29:59.523Z,99547.07
2022-08-05T17:32:24.784Z,99550.01
2022-08-05T17:34:58.764Z,99549.24
2022-08-05T17:37:41.556Z,99551.82
2022-08-05T17:40:12.462Z,99549.11
2022-08-05T17:42:50.514Z,99552.86
2022-08-05T17:45:38.007Z,99546.68
2022-08-05T17:48:00.417Z,99547.90
2022-08-05T17:50:34.066Z,99547.30
2022-08-05T17:53:08.839Z,99543.65
2022-08-05T17:55:43.101Z,99547.30
2022-08-05T17:58:21.566Z,99549.98
2022-08-05T18:00:53.893Z,99559.13
2022-08-05T18:03:58.974Z,99553.85
2022-08-05T18:06:11.396Z,99556.87
2022-08-05T18:08:44.919Z,99559.28
2022-08-05T18:11:23.391Z,99558.16
2022-08-05T18:13:52.723Z,99557.88
2022-08-05T18:16:26.365Z,99560.00
2022-08-05T18:18:59.706Z,99560.17
2022-08-05T18:22:09.324Z,99563.34
2022-08-05T18:24:09.565Z,99562.88
2022-08-05T18:26:45.113Z,99566.73
2022-08-05T18:29:39.967Z,99571.44
2022-08-05T18:31:55.460Z,99552.63
2022-08-05T18:34:41.144Z,99565.11
2022-08-05T18:37:05.875Z,99573.27
2022-08-05T18:40:30.906Z,99565.28
2022-08-05T18:44:58.277Z,99572.22
2022-08-05T18:47:34.243Z,99563.38
2022-08-05T18:50:45.385Z,99568.14
2022-08-05T18:53:02.749Z,99560.45
2022-08-05T18:55:37.869Z,99565.34
2022-08-05T18:58:15.207Z,99570.22
2022-08-05T19:00:48.064Z,99557.16
2022-08-05T19:03:55.213Z,99561.95
2022-08-05T19:06:12.905Z,99559.45
2022-08-05T19:08:32.628Z,99568.66
2022-08-05T19:11:07.354Z,99561.92
2022-08-05T19:16:25.104Z,99560.19
2022-08-05T19:18:59.423Z,99559.36
2022-08-05T19:21:34.258Z,99564.20
2022-08-05T19:24:12.664Z,99560.06
2022-08-05T19:26:54.629Z,99555.94
2022-08-05T19:29:19.413Z,99552.66
2022-08-05T19:31:52.535Z,99553.79
2022-08-05T19:34:55.265Z,99559.41
2022-08-05T19:37:29.828Z,99573.95
2022-08-05T19:40:01.448Z,99574.30
2022-08-05T19:42:40.480Z,99570.07
2022-08-05T19:45:14.887Z,99569.28
2022-08-05T19:47:48.127Z,99573.28
2022-08-05T19:50:24.117Z,99566.36
2022-08-05T19:53:09.452Z,99565.67
2022-08-05T19:56:13.686Z,99572.03
2022-08-05T19:58:28.327Z,99567.00
2022-08-05T20:00:52.194Z,99561.98
2022-08-05T20:03:40.487Z,99564.14
2022-08-05T20:06:15.477Z,99562.77
2022-08-05T20:08:51.684Z,99560.33
2022-08-05T20:11:29.066Z,99565.08
2022-08-05T20:14:42.862Z,99565.25
2022-08-05T20:17:24.034Z,99564.55
2022-08-05T20:19:57.892Z,99558.66
2022-08-05T20:22:31.354Z,99562.47
2022-08-05T20:25:04.948Z,99560.88
2022-08-05T20:27:41.855Z,99561.94
2022-08-05T20:30:15.508Z,99553.10
2022-08-05T20:32:50.753Z,99560.43
2022-08-05T20:35:25.152Z,99559.78
2022-08-05T20:38:07.633Z,99559.06
2022-08-05T20:40:35.635Z,99563.89
2022-08-05T20:43:10.639Z,99560.59
2022-08-05T20:45:56.168Z,99553.84
2022-08-05T20:48:22.689Z,99553.13
2022-08-05T20:50:57.969Z,99551.56
2022-08-05T20:53:37.137Z,99557.00
2022-08-05T20:56:09.592Z,99552.59
2022-08-05T20:58:43.689Z,99533.84
2022-08-05T21:01:17.198Z,99559.91
2022-08-05T21:03:50.939Z,99558.34
2022-08-05T21:06:28.591Z,99556.82
2022-08-05T21:09:00.305Z,99553.21
2022-08-05T21:12:07.579Z,99553.38
2022-08-05T21:14:09.259Z,99555.25
2022-08-05T21:16:44.814Z,99543.92
2022-08-05T21:19:18.360Z,99540.56
2022-08-05T21:21:53.822Z,99549.71
2022-08-05T21:24:30.032Z,99549.08
2022-08-05T21:27:03.686Z,99542.16
2022-08-05T21:29:40.974Z,99543.17
2022-08-05T21:32:18.416Z,99542.45
2022-08-05T21:35:08.661Z,99543.48
2022-08-05T21:37:27.149Z,99544.50
2022-08-05T21:40:00.830Z,99543.86
2022-08-05T21:42:44.704Z,99550.60
2022-08-05T21:45:12.302Z,99537.69
2022-08-05T21:47:57.086Z,99548.47
2022-08-05T21:50:26.218Z,99543.12
2022-08-05T21:53:08.317Z,99546.73
2022-08-05T21:56:01.758Z,99557.42
2022-08-05T21:58:11.675Z,99549.64
2022-08-05T22:00:51.319Z,99551.59
2022-08-05T22:03:52.255Z,99548.35
2022-08-05T22:05:56.188Z,99545.03
2022-08-05T22:08:29.713Z,99548.89
2022-08-05T22:11:08.752Z,99542.84
2022-08-05T22:14:32.350Z,99542.84
2022-08-05T22:16:41.271Z,99536.91
2022-08-05T22:18:58.782Z,99541.26
2022-08-05T22:21:32.130Z,99552.48
2022-08-05T22:24:40.819Z,99546.49
2022-08-05T22:27:19.036Z,99547.73
2022-08-05T22:29:54.106Z,99546.48
2022-08-05T22:32:28.327Z,99552.02
2022-08-05T22:35:02.103Z,99546.79
2022-08-05T22:37:58.702Z,99539.16
2022-08-05T22:40:16.727Z,99554.39
2022-08-05T22:42:57.972Z,99550.80
2022-08-05T22:45:26.470Z,99551.58
2022-08-05T22:48:00.259Z,99552.66
2022-08-05T22:50:33.732Z,99544.91
2022-08-05T22:53:10.515Z,99544.91
2022-08-05T22:55:56.964Z,99544.91
2022-08-05T22:58:28.197Z,99547.88
2022-08-05T23:00:56.947Z,99548.12
2022-08-05T23:03:58.034Z,99542.91
2022-08-05T23:06:06.284Z,99552.80
2022-08-05T23:08:40.139Z,99543.98
2022-08-05T23:11:14.076Z,99549.45
2022-08-05T23:13:51.826Z,99540.45
2022-08-05T23:16:55.998Z,99542.91
2022-08-05T23:19:38.407Z,99500.51
2022-08-05T23:22:10.693Z,99541.98
2022-08-05T23:24:48.480Z,99544.65
2022-08-05T23:27:22.706Z,99539.45
2022-08-05T23:29:57.818Z,99552.80
2022-08-05T23:32:31.891Z,99548.24
2022-08-05T23:35:08.489Z,99543.13
2022-08-05T23:37:42.628Z,99545.19
2022-08-05T23:40:17.796Z,99542.84
2022-08-05T23:42:55.614Z,99549.29
2022-08-05T23:45:29.572Z,99551.28
2022-08-05T23:48:05.073Z,99542.61
2022-08-05T23:50:38.612Z,99552.55
2022-08-05T23:53:22.429Z,99545.59
2022-08-05T23:55:47.390Z,99547.61
2022-08-05T23:58:31.280Z,99547.07
